< < Back
Terminal Aerodrome Forecast


Current Version              Previous Versions:   1  2  3  4  5  6  7  8  9  

Terminal Aerodrome Forecast

412
FTUS42 KGSP 290542 CCA
TAFAND
TAF COR
KAND 290542Z 2906/3006 00000KT P6SM SCT080
     FM291000 00000KT P6SM SCT029
      TEMPO 2910/2913 00000KT 4SM BR
     FM291500 23003KT P6SM BKN024
     FM291900 22005KT P6SM BKN040 PROB30 2919/2923 4SM TSRA
      BKN030CB=

Latest METAR

657
SAUS70 KWBC 291100 RRE
MTRAND
METAR KAND 291056Z AUTO 09004KT 10SM CLR 23/22 A2999 RMK AO2 SLP146
T02330217


USA.gov is the U.S. government's official web portal to all federal, state and local government web resources and services.